Terminal Aerodrome Forecast
Issued by NWS Portland, OR

Home | Current Version | Previous Version | Text Only | Print | Product List | Glossary On
Versions: 1 2 3 4 5 6 7 8 9 10 11 12 13 14 15 16 17 18 19 20 21 22 23 24 25 26 27 28 29 30 31 32 33 34 35 36 37 38 39 40 41 42 43
000
FTUS46 KPQR 200542
TAFHIO
TAF
KHIO 200542Z 2006/2106 14007KT P6SM -RA BKN035 OVC050
     FM200900 10012KT 6SM -RA BR BKN025 OVC040
     FM201200 17011KT 4SM RA BR BKN008 OVC015
     FM201700 19012G22KT 4SM -RA BKN015 OVC025=

USA.gov is the U.S. government's official web portal to all federal, state and local government web resources and services.